Keum Yang Family — DSNO8 — position and weather

sailwx.info

Track history (hours):
 
Tides and Currents Weather Stations Pressure Air Temp Water Temp Dewpoint Dewpoint Depression Visibility Wind Speed Wind Dir Waves Ship Positions

Keum Yang Family

Last reported at 2015-Jul-18 12:05 UTC. Time now 2015-Aug-04 13:53 UTC.
Position N 34°55' E 140°03'.
Warning: this ship's position is 17 days out of date.

Length 95 m; draft 3.9 m.

Type: Other ship. MMSI: 441416000.

Date/timePositionNaut miles runAvg speedWind from/ knotsBaromVisibWave heightAir tempDewpointWater temp
2015-Jul-18 12:05N 34°55' E 140°03'811.1
2015-Jul-18 11:20N 35°00' E 140°11'  
2015-Jul-14 23:19N 35°56' E 140°39'2 2.9
2015-Jul-14 22:33N 35°56' E 140°42'5 4.3
2015-Jul-14 21:17N 36°01' E 140°43'  
2015-Jul-11 06:28N 34°60' E 140°15'1212.3
2015-Jul-11 05:30N 34°54' E 140°02'1211.8
2015-Jul-11 04:27N 34°52' E 139°47'1211.7
2015-Jul-11 03:23N 35°04' E 139°44'1011.9
2015-Jul-11 02:33N 35°14' E 139°46'1110.8
2015-Jul-11 01:33N 35°25' E 139°43'1111.5
2015-Jul-11 00:34N 35°32' E 139°54'6 5.2
2015-Jul-10 23:23N 35°35' E 140°00'0 0.0
2015-Jul-10 22:29N 35°35' E 140°00'0 0.0
2015-Jul-10 21:29N 35°35' E 140°00'0 0.0
2015-Jul-10 20:29N 35°35' E 140°00'0 0.0
2015-Jul-10 19:29N 35°35' E 140°00'0 0.0
2015-Jul-10 18:29N 35°35' E 140°00'0 0.0
2015-Jul-10 17:23N 35°35' E 140°00'0 0.0
2015-Jul-10 16:23N 35°35' E 140°00'0 0.0
2015-Jul-10 15:29N 35°35' E 140°00'0 0.0
2015-Jul-10 14:29N 35°35' E 140°00'0 0.0
2015-Jul-10 13:29N 35°35' E 140°00'0 0.0
2015-Jul-10 12:23N 35°35' E 140°00'0 0.0
2015-Jul-10 11:11N 35°35' E 140°00'0 0.0
2015-Jul-10 10:29N 35°35' E 140°00'0 0.0
2015-Jul-10 09:29N 35°35' E 140°00'0 0.0
2015-Jul-10 08:29N 35°35' E 140°00'1 1.5
2015-Jul-10 07:34N 35°36' E 139°59'4 4.4
2015-Jul-10 06:33N 35°41' E 139°58'0 0.0
2015-Jul-10 05:34N 35°41' E 139°58'0 0.0
2015-Jul-10 04:33N 35°41' E 139°58'0 0.0
2015-Jul-10 03:33N 35°41' E 139°58'0 0.0
2015-Jul-10 02:33N 35°41' E 139°58'0 0.0
2015-Jul-10 01:33N 35°41' E 139°58'0 0.0
2015-Jul-10 00:34N 35°41' E 139°58'0 0.0
2015-Jul-09 23:32N 35°41' E 139°58'0 0.1
2015-Jul-09 22:33N 35°41' E 139°58'6 5.7
2015-Jul-09 21:32N 35°35' E 139°60'0 0.2
2015-Jul-09 20:23N 35°35' E 139°60'0 0.0
2015-Jul-09 19:29N 35°35' E 139°60'0 0.0
2015-Jul-09 18:29N 35°35' E 139°60'0 0.0
2015-Jul-09 17:29N 35°35' E 139°60'0 0.0
2015-Jul-09 16:29N 35°35' E 139°60'0 0.0
2015-Jul-09 15:29N 35°35' E 139°60'0 0.0
2015-Jul-09 14:29N 35°35' E 139°60'0 0.0
2015-Jul-09 13:29N 35°35' E 139°60'0 0.0
2015-Jul-09 12:29N 35°35' E 139°60'0 0.0
2015-Jul-09 11:23N 35°35' E 139°60'0 0.0
2015-Jul-09 10:29N 35°35' E 139°60'0 0.0
2015-Jul-09 09:29N 35°35' E 139°60'0 0.0
2015-Jul-09 08:23N 35°35' E 139°60'0 0.0
2015-Jul-09 07:33N 35°35' E 139°60'0 0.0
2015-Jul-09 06:23N 35°35' E 139°60'0 0.0
2015-Jul-09 05:29N 35°35' E 139°60'0 0.0
2015-Jul-09 04:29N 35°35' E 139°60'0 0.0
2015-Jul-09 03:29N 35°35' E 139°60'0 0.0
2015-Jul-09 02:29N 35°35' E 139°60'0 0.0
2015-Jul-09 01:29N 35°35' E 139°60'0 0.0
2015-Jul-09 00:29N 35°35' E 139°60'0 0.0
2015-Jul-08 23:11N 35°35' E 139°60'0 0.1
2015-Jul-08 22:29N 35°35' E 139°60'0 0.1
2015-Jul-08 21:27N 35°35' E 139°60'0 0.0
2015-Jul-08 20:14N 35°35' E 139°60'0 0.0
2015-Jul-08 19:27N 35°35' E 139°60'0 0.0
2015-Jul-08 18:29N 35°35' E 139°60'0 0.0
2015-Jul-08 17:29N 35°35' E 139°60'0 0.0
2015-Jul-08 16:29N 35°35' E 139°60'0 0.0
2015-Jul-08 15:23N 35°35' E 139°60'0 0.0
2015-Jul-08 14:23N 35°35' E 139°60'0 0.0
2015-Jul-08 13:29N 35°35' E 139°60'0 0.0
2015-Jul-08 12:29N 35°35' E 139°60'  
Track history (hours):
 
Tides and Currents Weather Stations Pressure Air Temp Water Temp Dewpoint Dewpoint Depression Visibility Wind Speed Wind Dir Waves Ship Positions

Keum Yang Family

Last reported at 2015-Jul-18 12:05 UTC. Time now 2015-Aug-04 13:53 UTC.
Position N 34°55' E 140°03'.
Warning: this ship's position is 17 days out of date.

Length 95 m; draft 3.9 m.

Type: Other ship. MMSI: 441416000.

Date/timePositionNaut miles runAvg speedWind from/ knotsBaromVisibWave heightAir tempDewpointWater temp
2015-Jul-18 12:05N 34°55' E 140°03'811.1
2015-Jul-18 11:20N 35°00' E 140°11'  
2015-Jul-14 23:19N 35°56' E 140°39'2 2.9
2015-Jul-14 22:33N 35°56' E 140°42'5 4.3
2015-Jul-14 21:17N 36°01' E 140°43'  
2015-Jul-11 06:28N 34°60' E 140°15'1212.3
2015-Jul-11 05:30N 34°54' E 140°02'1211.8
2015-Jul-11 04:27N 34°52' E 139°47'1211.7
2015-Jul-11 03:23N 35°04' E 139°44'1011.9
2015-Jul-11 02:33N 35°14' E 139°46'1110.8
2015-Jul-11 01:33N 35°25' E 139°43'1111.5
2015-Jul-11 00:34N 35°32' E 139°54'6 5.2
2015-Jul-10 23:23N 35°35' E 140°00'0 0.0
2015-Jul-10 22:29N 35°35' E 140°00'0 0.0
2015-Jul-10 21:29N 35°35' E 140°00'0 0.0
2015-Jul-10 20:29N 35°35' E 140°00'0 0.0
2015-Jul-10 19:29N 35°35' E 140°00'0 0.0
2015-Jul-10 18:29N 35°35' E 140°00'0 0.0
2015-Jul-10 17:23N 35°35' E 140°00'0 0.0
2015-Jul-10 16:23N 35°35' E 140°00'0 0.0
2015-Jul-10 15:29N 35°35' E 140°00'0 0.0
2015-Jul-10 14:29N 35°35' E 140°00'0 0.0
2015-Jul-10 13:29N 35°35' E 140°00'0 0.0
2015-Jul-10 12:23N 35°35' E 140°00'0 0.0
2015-Jul-10 11:11N 35°35' E 140°00'0 0.0
2015-Jul-10 10:29N 35°35' E 140°00'0 0.0
2015-Jul-10 09:29N 35°35' E 140°00'0 0.0
2015-Jul-10 08:29N 35°35' E 140°00'1 1.5
2015-Jul-10 07:34N 35°36' E 139°59'4 4.4
2015-Jul-10 06:33N 35°41' E 139°58'0 0.0
2015-Jul-10 05:34N 35°41' E 139°58'0 0.0
2015-Jul-10 04:33N 35°41' E 139°58'0 0.0
2015-Jul-10 03:33N 35°41' E 139°58'0 0.0
2015-Jul-10 02:33N 35°41' E 139°58'0 0.0
2015-Jul-10 01:33N 35°41' E 139°58'0 0.0
2015-Jul-10 00:34N 35°41' E 139°58'0 0.0
2015-Jul-09 23:32N 35°41' E 139°58'0 0.1
2015-Jul-09 22:33N 35°41' E 139°58'6 5.7
2015-Jul-09 21:32N 35°35' E 139°60'0 0.2
2015-Jul-09 20:23N 35°35' E 139°60'0 0.0
2015-Jul-09 19:29N 35°35' E 139°60'0 0.0
2015-Jul-09 18:29N 35°35' E 139°60'0 0.0
2015-Jul-09 17:29N 35°35' E 139°60'0 0.0
2015-Jul-09 16:29N 35°35' E 139°60'0 0.0
2015-Jul-09 15:29N 35°35' E 139°60'0 0.0
2015-Jul-09 14:29N 35°35' E 139°60'0 0.0
2015-Jul-09 13:29N 35°35' E 139°60'0 0.0
2015-Jul-09 12:29N 35°35' E 139°60'0 0.0
2015-Jul-09 11:23N 35°35' E 139°60'0 0.0
2015-Jul-09 10:29N 35°35' E 139°60'0 0.0
2015-Jul-09 09:29N 35°35' E 139°60'0 0.0
2015-Jul-09 08:23N 35°35' E 139°60'0 0.0
2015-Jul-09 07:33N 35°35' E 139°60'0 0.0
2015-Jul-09 06:23N 35°35' E 139°60'0 0.0
2015-Jul-09 05:29N 35°35' E 139°60'0 0.0
2015-Jul-09 04:29N 35°35' E 139°60'0 0.0
2015-Jul-09 03:29N 35°35' E 139°60'0 0.0
2015-Jul-09 02:29N 35°35' E 139°60'0 0.0
2015-Jul-09 01:29N 35°35' E 139°60'0 0.0
2015-Jul-09 00:29N 35°35' E 139°60'0 0.0
2015-Jul-08 23:11N 35°35' E 139°60'0 0.1
2015-Jul-08 22:29N 35°35' E 139°60'0 0.1
2015-Jul-08 21:27N 35°35' E 139°60'0 0.0
2015-Jul-08 20:14N 35°35' E 139°60'0 0.0
2015-Jul-08 19:27N 35°35' E 139°60'0 0.0
2015-Jul-08 18:29N 35°35' E 139°60'0 0.0
2015-Jul-08 17:29N 35°35' E 139°60'0 0.0
2015-Jul-08 16:29N 35°35' E 139°60'0 0.0
2015-Jul-08 15:23N 35°35' E 139°60'0 0.0
2015-Jul-08 14:23N 35°35' E 139°60'0 0.0
2015-Jul-08 13:29N 35°35' E 139°60'0 0.0
2015-Jul-08 12:29N 35°35' E 139°60'  

Dump ship's entire track history